Time;durP1;ratioP1;P1;durP2;ratioP2;P2;SDS_P1;SDS_P2;PMS_P1;PMS_P2;Temp;Humidity;BMP_temperature;BMP_pressure;BME280_temperature;BME280_humidity;BME280_pressure;Samples;Min_cycle;Max_cycle;Signal;HPM_P1;HPM_P2
2024/03/10 00:01:17;;;;;;;5.18;1.90;;;;;;;;;;4868599;29;20065;-74
2024/03/10 00:03:49;;;;;;;4.22;2.33;;;;;;;;;;4868399;29;20053;-73
2024/03/10 00:06:20;;;;;;;4.95;1.90;;;;;;;;;;4868572;29;20060;-74
2024/03/10 00:08:50;;;;;;;8.18;2.45;;;;;;;;;;4867369;29;20083;-73
2024/03/10 00:11:21;;;;;;;4.47;2.17;;;;;;;;;;4868274;29;20049;-73
2024/03/10 00:13:52;;;;;;;4.22;2.10;;;;;;;;;;4868728;29;20045;-74
2024/03/10 00:16:22;;;;;;;9.30;2.10;;;;;;;;;;4868469;29;20056;-73
2024/03/10 00:18:52;;;;;;;2.97;1.95;;;;;;;;;;4868737;29;20064;-74
2024/03/10 00:21:23;;;;;;;7.57;2.58;;;;;;;;;;4868699;29;20068;-73
2024/03/10 00:23:56;;;;;;;4.75;2.28;;;;;;;;;;4867221;29;20067;-74
2024/03/10 00:26:27;;;;;;;3.92;2.10;;;;;;;;;;4868649;29;21039;-73
2024/03/10 00:28:57;;;;;;;5.25;2.28;;;;;;;;;;4869283;29;20084;-73
2024/03/10 00:31:28;;;;;;;11.15;2.25;;;;;;;;;;4868812;29;20052;-73
2024/03/10 00:34:00;;;;;;;3.63;2.25;;;;;;;;;;4869171;29;20056;-74
2024/03/10 00:36:30;;;;;;;8.43;3.00;;;;;;;;;;4869328;29;20053;-73
2024/03/10 00:39:01;;;;;;;3.42;2.40;;;;;;;;;;4868322;29;20060;-74
2024/03/10 00:41:32;;;;;;;11.55;4.05;;;;;;;;;;4868166;29;20045;-74
2024/03/10 00:44:03;;;;;;;9.00;3.80;;;;;;;;;;4867288;29;20056;-74
2024/03/10 00:46:33;;;;;;;6.95;3.75;;;;;;;;;;4868460;29;20115;-74
2024/03/10 00:49:04;;;;;;;13.07;3.67;;;;;;;;;;4868752;29;20523;-74
2024/03/10 00:51:35;;;;;;;4.55;2.80;;;;;;;;;;4866350;29;20064;-74
2024/03/10 00:54:05;;;;;;;4.65;2.53;;;;;;;;;;4868164;29;20060;-74
2024/03/10 00:56:36;;;;;;;3.35;2.50;;;;;;;;;;4868188;29;20060;-74
2024/03/10 00:59:06;;;;;;;5.55;2.50;;;;;;;;;;4868374;29;20060;-72
2024/03/10 01:01:39;;;;;;;9.63;2.58;;;;;;;;;;4868684;29;20041;-74
2024/03/10 01:04:10;;;;;;;4.28;2.90;;;;;;;;;;4868667;29;20056;-75
2024/03/10 01:06:40;;;;;;;5.32;2.47;;;;;;;;;;4851906;29;20056;-74
2024/03/10 01:09:18;;;;;;;3.85;2.38;;;;;;;;;;4868710;29;20420;-72
2024/03/10 01:11:48;;;;;;;8.15;2.63;;;;;;;;;;4868435;29;20057;-74
2024/03/10 01:14:19;;;;;;;5.72;2.75;;;;;;;;;;4867976;29;20497;-74
2024/03/10 01:16:50;;;;;;;5.20;2.72;;;;;;;;;;4871108;29;20535;-74
2024/03/10 01:19:20;;;;;;;8.82;3.17;;;;;;;;;;4871572;29;20416;-74
2024/03/10 01:21:50;;;;;;;6.07;2.58;;;;;;;;;;4871469;29;20468;-74
2024/03/10 01:24:21;;;;;;;9.75;2.53;;;;;;;;;;4870905;29;20758;-72
2024/03/10 01:26:53;;;;;;;6.07;2.80;;;;;;;;;;4871105;29;20049;-72
2024/03/10 01:29:23;;;;;;;7.72;2.20;;;;;;;;;;4871226;29;20060;-74
2024/03/10 01:31:55;;;;;;;5.13;2.50;;;;;;;;;;4871343;29;20083;-74
2024/03/10 01:34:26;;;;;;;6.95;2.70;;;;;;;;;;4870900;29;20053;-72
2024/03/10 01:36:56;;;;;;;4.22;2.60;;;;;;;;;;4871417;29;20595;-72
2024/03/10 01:39:28;;;;;;;9.85;2.65;;;;;;;;;;4871348;29;20746;-72
2024/03/10 01:41:59;;;;;;;8.02;2.95;;;;;;;;;;4870794;29;20056;-72
2024/03/10 01:44:30;;;;;;;8.75;2.78;;;;;;;;;;4870856;29;20052;-72
2024/03/10 01:47:02;;;;;;;6.43;2.60;;;;;;;;;;4871114;29;20059;-72
2024/03/10 01:49:33;;;;;;;5.30;3.20;;;;;;;;;;4871137;29;20045;-72
2024/03/10 01:52:04;;;;;;;4.13;2.90;;;;;;;;;;4869436;29;20049;-74
2024/03/10 01:54:37;;;;;;;5.82;3.60;;;;;;;;;;4872019;29;20056;-73
2024/03/10 01:57:08;;;;;;;8.75;3.53;;;;;;;;;;4871273;29;20053;-73
2024/03/10 01:59:39;;;;;;;11.75;3.55;;;;;;;;;;4869596;29;20056;-72
2024/03/10 02:02:10;;;;;;;8.73;4.15;;;;;;;;;;4865296;29;20496;-73
2024/03/10 02:04:40;;;;;;;12.88;4.95;;;;;;;;;;4869989;29;20427;-73
2024/03/10 02:07:11;;;;;;;7.82;5.10;;;;;;;;;;4870766;29;20356;-72
2024/03/10 02:09:44;;;;;;;10.27;5.55;;;;;;;;;;4870045;29;20056;-73
2024/03/10 02:12:15;;;;;;;13.20;5.18;;;;;;;;;;4870657;29;20076;-74
2024/03/10 02:15:03;;;;;;;10.07;4.88;;;;;;;;;;4870165;29;20607;-74
2024/03/10 02:17:36;;;;;;;7.53;5.20;;;;;;;;;;4869975;29;20795;-75
2024/03/10 02:20:19;;;;;;;7.47;5.40;;;;;;;;;;4870698;29;20048;-72
2024/03/10 02:22:51;;;;;;;10.63;4.50;;;;;;;;;;4870905;29;20060;-72
2024/03/10 02:25:24;;;;;;;10.10;4.25;;;;;;;;;;4869121;29;20060;-72
2024/03/10 02:27:59;;;;;;;6.03;4.43;;;;;;;;;;4870385;29;20057;-73
2024/03/10 02:30:31;;;;;;;11.75;4.57;;;;;;;;;;4870462;29;20053;-73
2024/03/10 02:47:17;;;;;;;7.35;4.20;;;;;;;;;;4869926;29;20062;-73
2024/03/10 02:49:49;;;;;;;8.73;5.00;;;;;;;;;;4870352;29;20131;-74
2024/03/10 02:52:20;;;;;;;12.20;5.38;;;;;;;;;;4869932;29;20128;-73
2024/03/10 02:54:50;;;;;;;11.18;4.97;;;;;;;;;;4869371;29;20053;-72
2024/03/10 02:57:21;;;;;;;9.07;6.18;;;;;;;;;;4870060;29;20421;-75
2024/03/10 02:59:54;;;;;;;11.73;6.70;;;;;;;;;;4870144;29;20505;-73
2024/03/10 03:02:25;;;;;;;11.02;5.18;;;;;;;;;;4870108;29;20056;-73
2024/03/10 03:04:55;;;;;;;10.65;5.18;;;;;;;;;;4869564;29;20053;-74
2024/03/10 03:07:26;;;;;;;12.02;6.47;;;;;;;;;;4870669;29;20064;-72
2024/03/10 03:09:59;;;;;;;16.15;5.60;;;;;;;;;;4869469;29;20055;-73
2024/03/10 03:12:29;;;;;;;12.10;5.63;;;;;;;;;;4869512;29;20056;-72
2024/03/10 03:15:00;;;;;;;10.63;4.90;;;;;;;;;;4869679;29;20492;-73
2024/03/10 03:17:31;;;;;;;9.40;5.68;;;;;;;;;;4869857;29;20060;-73
2024/03/10 03:20:15;;;;;;;8.82;5.72;;;;;;;;;;4869739;29;20501;-72
2024/03/10 03:22:47;;;;;;;11.95;5.82;;;;;;;;;;4870204;29;20052;-73
2024/03/10 03:25:17;;;;;;;12.90;5.90;;;;;;;;;;4869364;29;20057;-71
2024/03/10 03:27:50;;;;;;;8.02;5.88;;;;;;;;;;4869023;29;20055;-72
2024/03/10 03:30:22;;;;;;;8.50;5.50;;;;;;;;;;4868727;29;20045;-72
2024/03/10 03:32:54;;;;;;;10.18;5.43;;;;;;;;;;4869924;29;20064;-72
2024/03/10 03:35:24;;;;;;;8.27;5.40;;;;;;;;;;4869516;29;20057;-72
2024/03/10 03:37:55;;;;;;;8.80;5.72;;;;;;;;;;4867342;29;20061;-75
2024/03/10 03:40:26;;;;;;;8.70;5.57;;;;;;;;;;4869158;29;20064;-74
2024/03/10 03:42:56;;;;;;;10.05;5.28;;;;;;;;;;4869693;29;20053;-73
2024/03/10 03:45:27;;;;;;;9.65;6.15;;;;;;;;;;4869334;29;20065;-72
2024/03/10 03:47:59;;;;;;;11.50;6.20;;;;;;;;;;4868892;29;20135;-73
2024/03/10 03:50:31;;;;;;;8.40;5.85;;;;;;;;;;4869123;29;20053;-72
2024/03/10 03:53:02;;;;;;;8.00;5.30;;;;;;;;;;4868806;29;20060;-72
2024/03/10 03:55:32;;;;;;;10.43;5.18;;;;;;;;;;4868902;29;20048;-73
2024/03/10 03:58:03;;;;;;;8.57;5.55;;;;;;;;;;4869116;29;20045;-73
2024/03/10 04:00:33;;;;;;;12.63;5.38;;;;;;;;;;4869199;29;20517;-72
2024/03/10 04:03:04;;;;;;;12.18;5.47;;;;;;;;;;4868800;29;20063;-74
2024/03/10 04:05:34;;;;;;;8.45;4.93;;;;;;;;;;4868506;29;20623;-73
2024/03/10 04:08:06;;;;;;;7.43;4.93;;;;;;;;;;4868770;29;20045;-73
2024/03/10 04:10:37;;;;;;;8.68;4.53;;;;;;;;;;4869296;29;20049;-76
2024/03/10 04:13:07;;;;;;;9.50;4.32;;;;;;;;;;4868604;29;20053;-74
2024/03/10 04:15:37;;;;;;;11.27;4.43;;;;;;;;;;4868681;29;20052;-73
2024/03/10 04:18:08;;;;;;;8.32;3.85;;;;;;;;;;4868469;29;20045;-73
2024/03/10 04:20:41;;;;;;;9.27;3.75;;;;;;;;;;4868534;29;20048;-72
2024/03/10 04:23:12;;;;;;;8.05;4.03;;;;;;;;;;4869091;29;20052;-72
2024/03/10 04:25:42;;;;;;;8.82;4.70;;;;;;;;;;4868294;29;20052;-72
2024/03/10 04:28:13;;;;;;;6.07;4.05;;;;;;;;;;4868280;29;20056;-72
2024/03/10 04:30:45;;;;;;;5.28;3.75;;;;;;;;;;4868362;29;20105;-72
2024/03/10 04:33:16;;;;;;;8.98;3.42;;;;;;;;;;4868547;29;20075;-73
2024/03/10 04:35:47;;;;;;;13.15;3.90;;;;;;;;;;4868935;29;20618;-72
2024/03/10 04:38:17;;;;;;;10.05;3.58;;;;;;;;;;4868703;29;20056;-72
2024/03/10 04:40:48;;;;;;;7.43;3.35;;;;;;;;;;4868553;29;20060;-73
2024/03/10 04:43:19;;;;;;;5.97;3.20;;;;;;;;;;4869226;29;20065;-73
2024/03/10 04:45:53;;;;;;;6.97;3.78;;;;;;;;;;4868749;29;20049;-73
2024/03/10 04:48:23;;;;;;;4.72;3.22;;;;;;;;;;4868588;29;20052;-74
2024/03/10 04:50:53;;;;;;;5.88;3.60;;;;;;;;;;4872803;29;20056;-72
2024/03/10 04:53:24;;;;;;;6.35;3.08;;;;;;;;;;4871947;29;20493;-73
2024/03/10 04:55:55;;;;;;;5.20;2.85;;;;;;;;;;4871680;29;20053;-72
2024/03/10 04:58:27;;;;;;;8.52;3.05;;;;;;;;;;4871937;29;20053;-74
2024/03/10 05:01:00;;;;;;;5.53;3.20;;;;;;;;;;4872042;29;20049;-74
2024/03/10 05:03:31;;;;;;;8.60;3.10;;;;;;;;;;4872561;29;20057;-73
2024/03/10 05:06:01;;;;;;;7.38;3.20;;;;;;;;;;4871468;29;20052;-72
2024/03/10 05:08:31;;;;;;;7.60;3.10;;;;;;;;;;4871521;29;20057;-72
2024/03/10 05:11:03;;;;;;;5.55;2.75;;;;;;;;;;4871662;29;20056;-73
2024/03/10 05:13:38;;;;;;;5.50;2.80;;;;;;;;;;4872108;29;20510;-73
2024/03/10 05:16:08;;;;;;;7.25;3.13;;;;;;;;;;4871244;29;20053;-72
2024/03/10 05:18:40;;;;;;;12.85;2.70;;;;;;;;;;4871386;29;20770;-73
2024/03/10 05:21:10;;;;;;;5.35;2.90;;;;;;;;;;4871448;29;20056;-72
2024/03/10 05:23:41;;;;;;;9.30;2.78;;;;;;;;;;4871610;29;20052;-73
2024/03/10 05:26:12;;;;;;;8.48;3.13;;;;;;;;;;4871705;29;20049;-73
2024/03/10 05:28:42;;;;;;;6.32;3.25;;;;;;;;;;4872633;29;20041;-72
2024/03/10 05:31:31;;;;;;;6.47;3.55;;;;;;;;;;4871939;29;20061;-72
2024/03/10 05:34:03;;;;;;;6.10;2.75;;;;;;;;;;4871691;29;20053;-73
2024/03/10 05:36:33;;;;;;;5.53;3.25;;;;;;;;;;4871667;29;20045;-72
2024/03/10 05:39:04;;;;;;;8.50;2.95;;;;;;;;;;4871386;29;20049;-72
2024/03/10 05:41:35;;;;;;;9.60;2.92;;;;;;;;;;4871293;29;20505;-73
2024/03/10 05:44:05;;;;;;;9.45;3.22;;;;;;;;;;4869751;29;20496;-73
2024/03/10 05:46:36;;;;;;;5.13;3.00;;;;;;;;;;4870741;29;20543;-73
2024/03/10 05:49:08;;;;;;;8.63;3.00;;;;;;;;;;4870961;29;20076;-74
2024/03/10 05:51:38;;;;;;;7.25;3.05;;;;;;;;;;4870499;29;20068;-76
2024/03/10 05:54:09;;;;;;;4.32;2.60;;;;;;;;;;4871043;29;20055;-74
2024/03/10 05:56:41;;;;;;;6.70;2.83;;;;;;;;;;4870783;29;20397;-72
2024/03/10 05:59:11;;;;;;;3.17;1.92;;;;;;;;;;4871026;29;20428;-74
2024/03/10 06:01:42;;;;;;;8.63;2.60;;;;;;;;;;4870617;29;20053;-73
2024/03/10 06:04:13;;;;;;;6.78;3.10;;;;;;;;;;4870681;29;20052;-73
2024/03/10 06:06:43;;;;;;;9.32;2.60;;;;;;;;;;4870860;29;20056;-72
2024/03/10 06:09:14;;;;;;;4.32;2.63;;;;;;;;;;4871087;29;20060;-73
2024/03/10 06:11:45;;;;;;;8.52;2.85;;;;;;;;;;4869533;29;20065;-73
2024/03/10 06:14:16;;;;;;;4.68;2.70;;;;;;;;;;4870929;29;20049;-74
2024/03/10 06:16:46;;;;;;;9.48;2.90;;;;;;;;;;4870852;29;20493;-74
2024/03/10 06:27:43;;;;;;;4.43;2.90;;;;;;;;;;4870089;29;20056;-74
2024/03/10 06:30:13;;;;;;;8.18;2.70;;;;;;;;;;4869950;29;20071;-74
2024/03/10 06:32:43;;;;;;;10.98;3.05;;;;;;;;;;4870313;29;20044;-73
2024/03/10 06:35:13;;;;;;;6.65;2.90;;;;;;;;;;4870402;29;20517;-72
2024/03/10 06:37:48;;;;;;;5.53;2.85;;;;;;;;;;4869686;29;20354;-73
2024/03/10 06:40:21;;;;;;;5.60;2.30;;;;;;;;;;4870434;29;20053;-73
2024/03/10 06:42:51;;;;;;;7.93;3.13;;;;;;;;;;4870154;29;20056;-73
2024/03/10 06:45:22;;;;;;;8.27;3.55;;;;;;;;;;4870037;29;20052;-73
2024/03/10 06:47:54;;;;;;;5.70;2.65;;;;;;;;;;4870893;29;20060;-72
2024/03/10 06:50:27;;;;;;;8.88;3.45;;;;;;;;;;4870304;29;20048;-73
2024/03/10 06:52:58;;;;;;;7.40;2.65;;;;;;;;;;4870525;29;20045;-73
2024/03/10 06:55:28;;;;;;;8.63;3.03;;;;;;;;;;4869880;29;20045;-74
2024/03/10 06:57:58;;;;;;;7.45;3.10;;;;;;;;;;4868241;29;20056;-72
2024/03/10 07:00:29;;;;;;;3.08;2.42;;;;;;;;;;4869776;29;20496;-73
2024/03/10 07:03:00;;;;;;;5.32;2.92;;;;;;;;;;4869573;29;20048;-72
2024/03/10 07:05:30;;;;;;;5.38;2.53;;;;;;;;;;4869655;29;21051;-73
2024/03/10 07:08:03;;;;;;;4.43;2.42;;;;;;;;;;4869945;29;20049;-72
2024/03/10 07:10:37;;;;;;;5.95;3.15;;;;;;;;;;4869773;29;20744;-73
2024/03/10 07:13:08;;;;;;;6.93;2.80;;;;;;;;;;4868769;29;20053;-74
2024/03/10 07:15:38;;;;;;;5.65;3.30;;;;;;;;;;4869603;29;20049;-72
2024/03/10 07:18:10;;;;;;;8.48;3.10;;;;;;;;;;4869757;29;20049;-73
2024/03/10 07:20:41;;;;;;;8.07;3.38;;;;;;;;;;4869488;29;20053;-72
2024/03/10 07:23:14;;;;;;;4.68;2.60;;;;;;;;;;4869816;29;20041;-73
2024/03/10 07:25:44;;;;;;;8.55;2.97;;;;;;;;;;4869143;29;20509;-73
2024/03/10 07:28:14;;;;;;;8.73;3.33;;;;;;;;;;4869396;29;20519;-72
2024/03/10 07:30:45;;;;;;;8.25;4.00;;;;;;;;;;4868847;29;20049;-74
2024/03/10 07:33:15;;;;;;;5.80;3.28;;;;;;;;;;4869424;29;20045;-73
2024/03/10 07:35:46;;;;;;;15.38;4.13;;;;;;;;;;4869124;29;20052;-73
2024/03/10 07:38:17;;;;;;;8.43;3.80;;;;;;;;;;4869718;29;20052;-73
2024/03/10 07:40:48;;;;;;;7.40;4.32;;;;;;;;;;4869371;29;20072;-73
2024/03/10 07:43:24;;;;;;;6.88;3.47;;;;;;;;;;4869091;29;20044;-73
2024/03/10 07:45:55;;;;;;;10.02;3.53;;;;;;;;;;4869993;29;20057;-73
2024/03/10 07:48:25;;;;;;;6.00;3.28;;;;;;;;;;4868959;29;20049;-74
2024/03/10 07:50:55;;;;;;;8.05;2.90;;;;;;;;;;4868768;29;20866;-74
2024/03/10 07:53:27;;;;;;;10.77;3.67;;;;;;;;;;4868805;29;20049;-73
2024/03/10 07:56:00;;;;;;;7.70;3.10;;;;;;;;;;4853095;29;20056;-74
2024/03/10 07:58:32;;;;;;;9.27;3.80;;;;;;;;;;4867937;29;20069;-72
2024/03/10 08:01:03;;;;;;;9.05;2.80;;;;;;;;;;4868740;29;20063;-73
2024/03/10 08:03:34;;;;;;;6.13;3.00;;;;;;;;;;4868962;29;20049;-73
2024/03/10 08:06:07;;;;;;;6.57;3.40;;;;;;;;;;4869030;29;20072;-74
2024/03/10 08:08:38;;;;;;;7.47;3.55;;;;;;;;;;4868268;29;20059;-72
2024/03/10 08:11:09;;;;;;;5.05;2.70;;;;;;;;;;4867835;29;20052;-73
2024/03/10 08:13:40;;;;;;;7.82;3.08;;;;;;;;;;4868469;29;20067;-73
2024/03/10 08:16:11;;;;;;;9.05;2.80;;;;;;;;;;4869209;29;20061;-74
2024/03/10 08:18:43;;;;;;;11.38;3.35;;;;;;;;;;4868605;29;20092;-74
2024/03/10 08:21:18;;;;;;;12.93;3.28;;;;;;;;;;4867241;29;20061;-74
2024/03/10 08:23:48;;;;;;;5.97;3.17;;;;;;;;;;4870613;29;20057;-73
2024/03/10 08:26:19;;;;;;;6.40;2.70;;;;;;;;;;4872149;29;20060;-73
2024/03/10 08:28:49;;;;;;;8.95;2.95;;;;;;;;;;4872385;29;21018;-73
2024/03/10 08:31:19;;;;;;;6.28;3.30;;;;;;;;;;4872158;29;20436;-74
2024/03/10 08:33:50;;;;;;;8.18;3.42;;;;;;;;;;4872503;29;20854;-72
2024/03/10 08:36:20;;;;;;;6.68;3.17;;;;;;;;;;4871850;29;20509;-73
2024/03/10 08:38:51;;;;;;;12.40;2.92;;;;;;;;;;4872079;29;20558;-72
2024/03/10 08:41:22;;;;;;;10.90;2.72;;;;;;;;;;4872194;29;20417;-74
2024/03/10 08:43:53;;;;;;;8.68;2.90;;;;;;;;;;4872266;29;20061;-73
2024/03/10 08:46:24;;;;;;;10.95;3.60;;;;;;;;;;4872650;29;20056;-73
2024/03/10 08:48:54;;;;;;;7.38;3.63;;;;;;;;;;4871689;29;20049;-73
2024/03/10 08:51:27;;;;;;;7.18;3.55;;;;;;;;;;4871955;29;20532;-73
2024/03/10 08:53:58;;;;;;;8.05;3.47;;;;;;;;;;4871663;29;20513;-74
2024/03/10 08:56:28;;;;;;;8.32;3.25;;;;;;;;;;4871780;29;20060;-72
2024/03/10 08:58:58;;;;;;;6.03;3.83;;;;;;;;;;4872398;29;20540;-74
2024/03/10 09:01:29;;;;;;;14.80;4.55;;;;;;;;;;4870361;29;20398;-72
2024/03/10 09:04:02;;;;;;;11.40;4.20;;;;;;;;;;4872244;29;20052;-74
2024/03/10 09:06:33;;;;;;;14.65;5.05;;;;;;;;;;4871671;29;20095;-74
2024/03/10 09:09:08;;;;;;;12.40;5.28;;;;;;;;;;4871747;29;20092;-73
2024/03/10 09:11:38;;;;;;;10.55;5.10;;;;;;;;;;4871811;29;20060;-74
2024/03/10 09:14:09;;;;;;;10.95;4.80;;;;;;;;;;4871991;29;20428;-74
2024/03/10 09:16:39;;;;;;;9.68;4.75;;;;;;;;;;4871994;29;20056;-73
2024/03/10 09:19:10;;;;;;;9.02;4.40;;;;;;;;;;4871624;29;20543;-74
2024/03/10 09:21:43;;;;;;;17.02;5.10;;;;;;;;;;4871208;29;20496;-73
2024/03/10 09:24:14;;;;;;;14.35;4.80;;;;;;;;;;4871672;29;20061;-72
2024/03/10 09:26:44;;;;;;;15.60;5.13;;;;;;;;;;4871162;29;20097;-73
2024/03/10 09:29:15;;;;;;;7.15;4.03;;;;;;;;;;4871464;29;20060;-72
2024/03/10 09:31:46;;;;;;;9.13;4.70;;;;;;;;;;4870961;29;20501;-75
2024/03/10 09:34:17;;;;;;;5.78;4.00;;;;;;;;;;4871139;29;20488;-74
2024/03/10 09:36:47;;;;;;;9.35;3.88;;;;;;;;;;4871022;29;20056;-73
2024/03/10 09:39:18;;;;;;;7.45;3.80;;;;;;;;;;4871273;29;20053;-73
2024/03/10 09:41:51;;;;;;;5.47;3.58;;;;;;;;;;4870192;29;20443;-73
2024/03/10 09:44:24;;;;;;;10.02;3.90;;;;;;;;;;4870920;29;20060;-75
2024/03/10 09:46:55;;;;;;;5.88;4.53;;;;;;;;;;4870998;29;20064;-73
2024/03/10 09:49:25;;;;;;;9.23;4.32;;;;;;;;;;4871429;29;20049;-73
2024/03/10 09:51:56;;;;;;;5.93;3.70;;;;;;;;;;4871635;29;20868;-73
2024/03/10 09:54:28;;;;;;;6.65;4.25;;;;;;;;;;4870977;29;20045;-74
2024/03/10 09:56:57;;;;;;;7.45;4.35;;;;;;;;;;4871321;29;20052;-72
2024/03/10 09:59:44;;;;;;;5.07;3.70;;;;;;;;;;4871006;29;20057;-72
2024/03/10 10:02:28;;;;;;;9.13;3.83;;;;;;;;;;4871198;29;20531;-72
2024/03/10 10:05:02;;;;;;;9.18;3.40;;;;;;;;;;4871036;29;20057;-74
2024/03/10 10:07:34;;;;;;;6.30;3.65;;;;;;;;;;4869799;29;20440;-73
2024/03/10 10:10:06;;;;;;;6.20;3.92;;;;;;;;;;4870771;29;20084;-75
2024/03/10 10:12:37;;;;;;;10.02;2.88;;;;;;;;;;4870247;29;20057;-73
2024/03/10 10:15:08;;;;;;;6.57;3.75;;;;;;;;;;4870922;29;20056;-72
2024/03/10 10:17:40;;;;;;;5.30;3.38;;;;;;;;;;4870267;29;21106;-74
2024/03/10 10:20:12;;;;;;;7.10;3.40;;;;;;;;;;4870106;29;20421;-75
2024/03/10 10:22:42;;;;;;;7.53;3.78;;;;;;;;;;4870224;29;20049;-74
2024/03/10 10:25:13;;;;;;;4.60;3.15;;;;;;;;;;4870574;29;20414;-75
2024/03/10 10:27:51;;;;;;;5.53;2.72;;;;;;;;;;4868103;29;21236;-73
2024/03/10 10:30:28;;;;;;;6.28;3.00;;;;;;;;;;4869892;29;20064;-72
2024/03/10 10:33:04;;;;;;;9.23;3.30;;;;;;;;;;4870398;29;20057;-72
2024/03/10 10:35:42;;;;;;;4.95;2.90;;;;;;;;;;4869086;29;20444;-73
2024/03/10 10:38:13;;;;;;;7.85;3.22;;;;;;;;;;4870888;29;20441;-73
2024/03/10 10:40:51;;;;;;;10.18;3.45;;;;;;;;;;4871291;29;20421;-73
2024/03/10 10:43:22;;;;;;;7.68;3.22;;;;;;;;;;4870600;29;20056;-73
2024/03/10 10:45:53;;;;;;;5.50;3.60;;;;;;;;;;4869935;29;20053;-77
2024/03/10 10:48:23;;;;;;;6.57;3.88;;;;;;;;;;4869966;29;20041;-74
2024/03/10 10:50:53;;;;;;;6.55;3.17;;;;;;;;;;4869737;29;20431;-74
2024/03/10 10:53:25;;;;;;;4.03;2.78;;;;;;;;;;4870679;29;20060;-73
2024/03/10 10:55:58;;;;;;;8.82;2.97;;;;;;;;;;4868076;29;20505;-76
2024/03/10 10:58:34;;;;;;;5.70;3.28;;;;;;;;;;4870151;29;20053;-73
2024/03/10 11:01:05;;;;;;;6.85;2.60;;;;;;;;;;4869723;29;20057;-73
2024/03/10 11:03:37;;;;;;;8.30;2.67;;;;;;;;;;4869787;29;20052;-74
2024/03/10 11:06:08;;;;;;;6.43;2.20;;;;;;;;;;4871526;29;20060;-75
2024/03/10 11:08:40;;;;;;;8.07;2.28;;;;;;;;;;4869515;29;20053;-73
2024/03/10 11:11:16;;;;;;;3.40;1.80;;;;;;;;;;4870265;29;20585;-73
2024/03/10 11:13:48;;;;;;;6.38;1.90;;;;;;;;;;4868502;29;20065;-74
2024/03/10 11:16:25;;;;;;;7.88;1.67;;;;;;;;;;4868560;29;20853;-74
2024/03/10 11:19:13;;;;;;;2.90;1.80;;;;;;;;;;4867161;29;20056;-73
2024/03/10 11:21:50;;;;;;;2.88;1.88;;;;;;;;;;4869463;29;20056;-73
2024/03/10 11:24:26;;;;;;;2.45;1.63;;;;;;;;;;4869764;29;20060;-72
2024/03/10 11:27:20;;;;;;;4.65;2.13;;;;;;;;;;4869452;29;20674;-75
2024/03/10 11:29:51;;;;;;;2.00;1.58;;;;;;;;;;4869543;29;20052;-78
2024/03/10 11:32:31;;;;;;;5.22;1.90;;;;;;;;;;4869922;29;20056;-74
2024/03/10 11:35:07;;;;;;;3.28;1.70;;;;;;;;;;4869477;29;20049;-73
2024/03/10 11:37:38;;;;;;;3.03;1.40;;;;;;;;;;4869257;29;20063;-73
2024/03/10 11:40:15;;;;;;;2.97;1.13;;;;;;;;;;4869285;29;20058;-73
2024/03/10 11:42:48;;;;;;;3.42;1.50;;;;;;;;;;4868992;29;20057;-73
2024/03/10 11:45:19;;;;;;;5.45;1.50;;;;;;;;;;4867478;29;20430;-75
2024/03/10 11:47:50;;;;;;;2.78;1.30;;;;;;;;;;4869341;29;20062;-74
2024/03/10 11:50:20;;;;;;;1.73;1.23;;;;;;;;;;4868967;29;20083;-74
2024/03/10 11:52:50;;;;;;;6.15;1.52;;;;;;;;;;4869672;29;20052;-76
2024/03/10 11:55:21;;;;;;;1.98;1.00;;;;;;;;;;4868759;29;20607;-74
2024/03/10 11:57:53;;;;;;;1.73;1.15;;;;;;;;;;4870385;29;20519;-73
2024/03/10 12:00:24;;;;;;;2.20;0.98;;;;;;;;;;4868893;29;20496;-74
2024/03/10 12:02:57;;;;;;;1.15;0.90;;;;;;;;;;4869443;29;20056;-74
2024/03/10 12:05:28;;;;;;;4.47;1.10;;;;;;;;;;4868615;29;20432;-74
2024/03/10 12:08:00;;;;;;;2.92;1.20;;;;;;;;;;4868912;29;20424;-76
2024/03/10 12:10:32;;;;;;;4.47;1.27;;;;;;;;;;4868685;29;20052;-74
2024/03/10 12:13:05;;;;;;;2.90;1.20;;;;;;;;;;4868750;29;20060;-74
2024/03/10 12:15:37;;;;;;;3.08;1.88;;;;;;;;;;4869236;29;20041;-74
2024/03/10 12:18:08;;;;;;;4.45;3.17;;;;;;;;;;4869293;29;20053;-74
2024/03/10 12:20:38;;;;;;;6.50;3.20;;;;;;;;;;4869433;29;20493;-73
2024/03/10 12:23:10;;;;;;;9.75;3.78;;;;;;;;;;4866970;29;20057;-74
2024/03/10 12:25:42;;;;;;;5.38;3.80;;;;;;;;;;4866771;29;20088;-74
2024/03/10 12:28:13;;;;;;;5.00;4.47;;;;;;;;;;4868848;29;20056;-73
2024/03/10 12:30:44;;;;;;;4.78;4.28;;;;;;;;;;4868810;29;20416;-74
2024/03/10 12:33:15;;;;;;;8.30;5.05;;;;;;;;;;4868769;29;20060;-75
2024/03/10 12:35:45;;;;;;;7.47;5.20;;;;;;;;;;4868875;29;20087;-76
2024/03/10 12:38:16;;;;;;;7.20;5.65;;;;;;;;;;4867782;29;20061;-74
2024/03/10 12:40:47;;;;;;;7.55;5.35;;;;;;;;;;4868409;29;20052;-83
2024/03/10 12:43:18;;;;;;;9.32;6.85;;;;;;;;;;4868607;29;20091;-76
2024/03/10 12:45:48;;;;;;;10.23;6.05;;;;;;;;;;4869395;29;20049;-74
2024/03/10 12:48:19;;;;;;;6.63;5.93;;;;;;;;;;4868140;29;20052;-73
2024/03/10 12:50:49;;;;;;;8.15;6.28;;;;;;;;;;4867843;29;20528;-73
2024/03/10 12:53:21;;;;;;;8.18;5.63;;;;;;;;;;4867326;29;20053;-76
2024/03/10 12:55:51;;;;;;;6.18;5.57;;;;;;;;;;4868100;29;20064;-79
2024/03/10 12:58:21;;;;;;;4.93;4.22;;;;;;;;;;4868009;29;20056;-74
2024/03/10 13:00:52;;;;;;;7.30;4.05;;;;;;;;;;4868786;29;20611;-74
2024/03/10 13:03:24;;;;;;;5.93;3.95;;;;;;;;;;4869556;29;20054;-74
2024/03/10 13:05:55;;;;;;;6.85;3.85;;;;;;;;;;4868395;29;20867;-74
2024/03/10 13:08:28;;;;;;;4.25;3.85;;;;;;;;;;4868984;29;20831;-73
2024/03/10 13:10:58;;;;;;;5.55;3.72;;;;;;;;;;4870216;29;20068;-74
2024/03/10 13:13:30;;;;;;;5.65;3.58;;;;;;;;;;4871391;29;21173;-74
2024/03/10 13:16:00;;;;;;;5.50;3.65;;;;;;;;;;4871252;29;20056;-74
2024/03/10 13:18:30;;;;;;;6.47;3.60;;;;;;;;;;4869597;29;20520;-74
2024/03/10 13:21:02;;;;;;;5.00;3.40;;;;;;;;;;4871600;29;20064;-74
2024/03/10 13:23:34;;;;;;;5.18;3.20;;;;;;;;;;4871623;29;20095;-74
2024/03/10 13:26:04;;;;;;;5.70;2.78;;;;;;;;;;4870840;29;20049;-77
2024/03/10 13:28:35;;;;;;;3.10;2.55;;;;;;;;;;4871321;29;20056;-75
2024/03/10 13:31:05;;;;;;;4.05;2.30;;;;;;;;;;4871339;29;20052;-74
2024/03/10 13:33:37;;;;;;;4.05;2.38;;;;;;;;;;4871507;29;20053;-74
2024/03/10 13:36:08;;;;;;;3.53;2.25;;;;;;;;;;4871488;29;20053;-82
2024/03/10 13:38:47;;;;;;;2.67;1.90;;;;;;;;;;4871668;29;20056;-74
2024/03/10 13:41:18;;;;;;;3.55;1.92;;;;;;;;;;4871399;29;20056;-74
2024/03/10 13:43:49;;;;;;;3.63;2.30;;;;;;;;;;4871775;29;20508;-74
2024/03/10 13:46:19;;;;;;;3.22;2.10;;;;;;;;;;4871678;29;20063;-75
2024/03/10 13:48:49;;;;;;;2.33;1.80;;;;;;;;;;4870642;29;20053;-74
2024/03/10 13:51:20;;;;;;;5.22;2.10;;;;;;;;;;4871127;29;20061;-73
2024/03/10 13:53:52;;;;;;;3.72;2.13;;;;;;;;;;4871101;29;20421;-75
2024/03/10 13:56:23;;;;;;;2.85;1.85;;;;;;;;;;4871337;29;20064;-74
2024/03/10 13:58:55;;;;;;;4.88;1.95;;;;;;;;;;4870754;29;20072;-73
2024/03/10 14:01:26;;;;;;;3.28;1.70;;;;;;;;;;4871080;29;20053;-75
2024/03/10 14:03:57;;;;;;;3.35;1.60;;;;;;;;;;4870985;29;20056;-74
2024/03/10 14:06:28;;;;;;;4.15;2.03;;;;;;;;;;4869286;29;20052;-74
2024/03/10 14:08:59;;;;;;;7.35;2.53;;;;;;;;;;4870827;29;20056;-75
2024/03/10 14:11:29;;;;;;;7.07;2.25;;;;;;;;;;4869103;29;20064;-74
2024/03/10 14:14:01;;;;;;;2.63;1.90;;;;;;;;;;4868937;29;20068;-74
2024/03/10 14:16:32;;;;;;;4.93;2.50;;;;;;;;;;4870763;29;20056;-73
2024/03/10 14:19:02;;;;;;;6.18;1.98;;;;;;;;;;4870538;29;20060;-75
2024/03/10 14:21:33;;;;;;;5.05;1.60;;;;;;;;;;4871017;29;20049;-75
2024/03/10 14:24:09;;;;;;;4.65;2.05;;;;;;;;;;4870580;29;20052;-74
2024/03/10 14:26:39;;;;;;;3.88;2.00;;;;;;;;;;4870939;29;20343;-74
2024/03/10 14:29:10;;;;;;;4.65;2.50;;;;;;;;;;4870796;29;20045;-73
2024/03/10 14:31:41;;;;;;;2.42;1.90;;;;;;;;;;4870490;29;20060;-74
2024/03/10 14:34:12;;;;;;;5.43;2.40;;;;;;;;;;4868156;29;20049;-75
2024/03/10 14:36:42;;;;;;;2.97;1.90;;;;;;;;;;4868322;29;20052;-73
2024/03/10 14:39:13;;;;;;;5.03;1.95;;;;;;;;;;4867767;29;20622;-74
2024/03/10 14:41:46;;;;;;;4.72;1.90;;;;;;;;;;4868030;29;20057;-74
2024/03/10 14:44:17;;;;;;;3.10;1.70;;;;;;;;;;4868370;29;20607;-74
2024/03/10 14:46:48;;;;;;;2.88;1.55;;;;;;;;;;4867588;29;20053;-75
2024/03/10 14:49:18;;;;;;;2.00;1.70;;;;;;;;;;4868121;29;20045;-76
2024/03/10 14:51:49;;;;;;;4.75;2.00;;;;;;;;;;4869114;29;20061;-74
2024/03/10 14:54:21;;;;;;;2.92;1.50;;;;;;;;;;4870136;29;20053;-73
2024/03/10 14:56:52;;;;;;;6.10;2.67;;;;;;;;;;4870169;29;20061;-74
2024/03/10 14:59:22;;;;;;;3.63;2.08;;;;;;;;;;4870378;29;20048;-74
2024/03/10 15:01:52;;;;;;;6.20;1.98;;;;;;;;;;4870148;29;20056;-76
2024/03/10 15:04:23;;;;;;;6.43;1.55;;;;;;;;;;4870404;29;20517;-73
2024/03/10 15:06:53;;;;;;;2.97;2.13;;;;;;;;;;4869839;29;20053;-74
2024/03/10 15:09:27;;;;;;;3.20;1.77;;;;;;;;;;4867367;29;20064;-73
2024/03/10 15:11:57;;;;;;;3.92;1.75;;;;;;;;;;4869364;29;20049;-73
2024/03/10 15:14:28;;;;;;;2.42;1.67;;;;;;;;;;4869285;29;20053;-74
2024/03/10 15:16:59;;;;;;;2.65;1.77;;;;;;;;;;4869133;29;20420;-73
2024/03/10 15:19:31;;;;;;;3.60;1.48;;;;;;;;;;4869002;29;20061;-74
2024/03/10 15:22:02;;;;;;;1.85;1.10;;;;;;;;;;4869540;29;20394;-73
2024/03/10 15:24:32;;;;;;;2.05;1.30;;;;;;;;;;4868993;29;20421;-74
2024/03/10 15:27:06;;;;;;;2.50;1.38;;;;;;;;;;4869330;29;20751;-74
2024/03/10 15:29:37;;;;;;;2.38;1.88;;;;;;;;;;4869039;29;20543;-75